Aérodrome :
LOGIN :

S'inscrire | Disclaimer

   EN    FR    IT 

 










Légende :    VFR   VFR Marginal   IFR   IFR Intensif   IFR Très Intensif
Visi : 
Plafond : 
>= 8 km
>= 3000ft
5 à 8 km
1000 à 3000 ft
1500m à 5 km
500 à 1000 ft
800 à 1500m
200 à 500 ft
< 800m
< 200 ft
Symboles :   Orages  Brouillard  Fortes neiges  Fortes précipitations  Vent > 20 kt
SIGMETs :   Divers  Orages  Givrage  Turbulence  Onde Orograph.  Cendres Volcan.







- Altitude de l'aérodrome : 325 ft
- Code IATA : BES
- Voir les cartes d'approche


LFRB - Brest

DERNIER METAR :
  • 200600Z AUTO 20012KT 9999 OVC007 17/15 Q1015 NOSIG

METARs EXPIRÉS :
  • 200530Z AUTO 20013KT 9999 BKN007 OVC011 17/15 Q1016 NOSIG
  • 200500Z AUTO 20013KT 9999 BKN007 OVC011 17/15 Q1016 TEMPO OVC004
  • 200430Z AUTO 21014KT 9999 OVC006 17/15 Q1016 TEMPO OVC004
  • 200400Z AUTO 21014KT 9999 OVC007 17/15 Q1016 TEMPO OVC004
  • 200330Z AUTO 21015KT 9999 BKN007 OVC011 17/15 Q1016 TEMPO OVC004

TAF TAF LFRB
Valide du 20 à 06h jusqu'au 21 à 12h UTC


200500Z 2006/2112 23014KT 9999 OVC007
BECMG 2008/2010 20019G30KT BKN013
TEMPO 2019/2101 4000 RADZ OVC005
TEMPO 2022/2024 21023G35KT
BECMG 2101/2104 29014KT BKN016
ATIS : +33 2 98 32 02 71
Pas de NOTAMs connus pour ce terrain.



MET'MAP, la Météo Aéronautique d'un coup d'oeil ! - Copyright ORBIFLY Décembre 2007 - Disclaimer

ORBIFLY MET'MAP TEAM :

Programmation & Développement : Alexandra Zaïnal
Conception & Développement : Baudouin d'Aumeries
Co-Programmation & Développement : Marc-Olivier Méhu
Soutien technique & logistique : Manuel Goepfert

Contact : metmap@orbifly.com




SOURCES & CREDITS :

   NOAA